Terminal Aerodrome Forecast
Issued by NWS

Home | Current Version | Previous Version | Text Only | Print | Product List | Glossary On
Versions: 1 2 3 4 5 6 7 8 9 10 11 12 13 14 15 16 17 18 19 20 21
765
FTUS43 KGRB 270520
TAFMTW
TAF
KMTW 270520Z 2706/2806 33005KT 6SM BR OVC006
      TEMPO 2706/2709 3SM -DZ BR SCT006 OVC025
     FM271200 35003KT 5SM BR OVC007
     FM271700 02005KT 6SM BR OVC012
     FM272300 03005KT P6SM OVC015=

USA.gov is the U.S. government's official web portal to all federal, state and local government web resources and services.